createdAt,value
2024-04-24T00:00:21.283Z,0.60
2024-04-24T00:02:50.618Z,0.50
2024-04-24T00:05:18.490Z,0.50
2024-04-24T00:07:45.463Z,0.40
2024-04-24T00:10:12.415Z,0.30
2024-04-24T00:12:39.275Z,0.20
2024-04-24T00:15:06.377Z,0.20
2024-04-24T00:17:33.442Z,0.10
2024-04-24T00:20:00.608Z,0.00
2024-04-24T00:22:27.640Z,0.00
2024-04-24T00:24:54.520Z,-0.10
2024-04-24T00:27:21.436Z,-0.10
2024-04-24T00:29:48.392Z,-0.10
2024-04-24T00:32:15.320Z,-0.10
2024-04-24T00:34:42.165Z,-0.10
2024-04-24T00:37:09.044Z,0.00
2024-04-24T00:39:35.912Z,0.00
2024-04-24T00:42:02.810Z,0.00
2024-04-24T00:44:29.653Z,0.00
2024-04-24T00:46:59.299Z,0.00
2024-04-24T00:49:27.602Z,-0.10
2024-04-24T00:51:54.991Z,-0.10
2024-04-24T00:54:21.918Z,-0.10
2024-04-24T00:56:48.865Z,0.00
2024-04-24T00:59:15.788Z,0.00
2024-04-24T01:01:42.681Z,-0.10
2024-04-24T01:04:09.629Z,0.00
2024-04-24T01:06:36.491Z,0.00
2024-04-24T01:09:03.705Z,0.00
2024-04-24T01:11:33.662Z,0.00
2024-04-24T01:14:00.967Z,0.10
2024-04-24T01:16:34.587Z,0.10
2024-04-24T01:19:33.592Z,0.10
2024-04-24T01:22:21.149Z,0.10
2024-04-24T01:24:59.370Z,0.10
2024-04-24T01:27:26.386Z,0.10
2024-04-24T01:29:53.252Z,0.10
2024-04-24T01:32:20.166Z,0.10
2024-04-24T01:34:47.126Z,0.10
2024-04-24T01:37:14.011Z,0.10
2024-04-24T01:39:40.895Z,0.00
2024-04-24T01:42:07.837Z,0.00
2024-04-24T01:44:34.696Z,-0.10
2024-04-24T01:47:01.855Z,-0.10
2024-04-24T01:49:28.780Z,-0.20
2024-04-24T01:51:55.625Z,-0.20
2024-04-24T01:54:22.469Z,-0.20
2024-04-24T01:56:49.301Z,-0.30
2024-04-24T01:59:16.233Z,-0.30
2024-04-24T02:01:43.151Z,-0.30
2024-04-24T02:04:10.106Z,-0.40
2024-04-24T02:06:36.980Z,-0.50
2024-04-24T02:09:03.932Z,-0.50
2024-04-24T02:11:34.437Z,-0.60
2024-04-24T02:14:02.790Z,-0.60
2024-04-24T02:16:29.742Z,-0.60
2024-04-24T02:18:56.788Z,-0.70
2024-04-24T02:21:23.851Z,-0.70
2024-04-24T02:23:50.837Z,-0.80
2024-04-24T02:26:17.983Z,-0.80
2024-04-24T02:28:44.886Z,-0.80
2024-04-24T02:31:11.751Z,-0.80
2024-04-24T02:33:39.766Z,-0.90
2024-04-24T02:36:06.949Z,-0.90
2024-04-24T02:38:33.862Z,-0.90
2024-04-24T02:41:00.835Z,-1.00
2024-04-24T02:43:27.905Z,-1.00
2024-04-24T02:45:54.859Z,-1.00
2024-04-24T02:48:21.838Z,-0.90
2024-04-24T02:50:48.810Z,-0.90
2024-04-24T02:53:15.780Z,-0.90
2024-04-24T02:55:42.695Z,-0.90
2024-04-24T02:58:10.263Z,-0.90
2024-04-24T03:00:37.157Z,-0.90
2024-04-24T03:03:05.091Z,-0.90
2024-04-24T03:05:32.076Z,-0.90
2024-04-24T03:07:59.009Z,-0.90
2024-04-24T03:10:25.930Z,-0.90
2024-04-24T03:12:52.823Z,-0.90
2024-04-24T03:15:19.719Z,-0.90
2024-04-24T03:17:46.654Z,-0.90
2024-04-24T03:20:13.687Z,-0.90
2024-04-24T03:22:40.608Z,-0.90
2024-04-24T03:25:07.803Z,-0.90
2024-04-24T03:27:34.691Z,-0.90
2024-04-24T03:30:01.567Z,-0.90
2024-04-24T03:32:28.630Z,-0.90
2024-04-24T03:34:55.656Z,-0.90
2024-04-24T03:37:22.531Z,-1.00
2024-04-24T03:39:49.406Z,-1.00
2024-04-24T03:42:16.312Z,-1.00
2024-04-24T03:44:43.178Z,-1.00
2024-04-24T03:47:10.110Z,-1.10
2024-04-24T03:49:37.085Z,-1.10
2024-04-24T03:52:04.110Z,-1.10
2024-04-24T03:54:31.109Z,-1.10
2024-04-24T03:56:58.252Z,-1.10
2024-04-24T03:59:25.311Z,-1.00
2024-04-24T04:01:52.286Z,-1.00
2024-04-24T04:04:19.417Z,-1.00
2024-04-24T04:06:46.383Z,-0.90
2024-04-24T04:09:13.282Z,-0.90
2024-04-24T04:11:40.349Z,-0.80
2024-04-24T04:14:07.449Z,-0.80
2024-04-24T04:16:34.553Z,-0.80
2024-04-24T04:19:01.507Z,-0.70
2024-04-24T04:21:28.437Z,-0.70
2024-04-24T04:23:55.399Z,-0.60
2024-04-24T04:26:22.562Z,-0.60
2024-04-24T04:28:49.533Z,-0.60
2024-04-24T04:31:16.440Z,-0.50
2024-04-24T04:33:45.230Z,-0.50
2024-04-24T04:36:12.145Z,-0.50
2024-04-24T04:38:39.167Z,-0.40
2024-04-24T04:41:06.644Z,-0.40
2024-04-24T04:43:33.553Z,-0.40
2024-04-24T04:46:00.452Z,-0.30
2024-04-24T04:48:27.384Z,-0.30
2024-04-24T04:50:54.657Z,-0.20
2024-04-24T04:53:21.597Z,-0.20
2024-04-24T04:55:48.522Z,-0.10
2024-04-24T04:58:15.402Z,-0.10
2024-04-24T05:00:42.362Z,0.00
2024-04-24T05:03:09.385Z,0.10
2024-04-24T05:05:36.331Z,0.10
2024-04-24T05:08:03.572Z,0.20
2024-04-24T05:10:30.513Z,0.20
2024-04-24T05:12:57.521Z,0.30
2024-04-24T05:15:24.415Z,0.30
2024-04-24T05:17:51.523Z,0.40
2024-04-24T05:20:18.719Z,0.40
2024-04-24T05:22:51.215Z,0.50
2024-04-24T05:25:18.842Z,0.50
2024-04-24T05:28:04.933Z,0.60
2024-04-24T05:30:31.973Z,0.60
2024-04-24T05:32:59.065Z,0.70
2024-04-24T05:35:26.120Z,0.80
2024-04-24T05:37:53.280Z,0.80
2024-04-24T05:40:20.407Z,0.90
2024-04-24T05:42:47.524Z,0.90
2024-04-24T05:45:14.584Z,0.90
2024-04-24T05:47:41.762Z,1.00
2024-04-24T05:50:08.852Z,1.00
2024-04-24T05:52:35.922Z,1.10
2024-04-24T05:55:03.419Z,1.10
2024-04-24T05:57:30.741Z,1.20
2024-04-24T05:59:57.858Z,1.20
2024-04-24T06:02:24.899Z,1.30
2024-04-24T06:04:52.370Z,1.40
2024-04-24T06:07:19.531Z,1.50
2024-04-24T06:09:46.624Z,1.60
2024-04-24T06:12:13.968Z,1.70
2024-04-24T06:14:41.347Z,1.90
2024-04-24T06:17:08.436Z,2.00
2024-04-24T06:19:35.560Z,2.10
2024-04-24T06:22:02.645Z,2.20
2024-04-24T06:24:29.750Z,2.30
2024-04-24T06:26:57.235Z,2.60
2024-04-24T06:29:24.755Z,2.90
2024-04-24T06:31:51.836Z,3.20
2024-04-24T06:34:18.968Z,3.60
2024-04-24T06:36:45.973Z,3.90
2024-04-24T06:39:12.997Z,4.00
2024-04-24T06:41:40.061Z,3.90
2024-04-24T06:44:07.105Z,3.90
2024-04-24T06:46:34.080Z,4.10
2024-04-24T06:49:01.090Z,4.40
2024-04-24T06:51:28.092Z,4.70
2024-04-24T06:53:55.142Z,5.00
2024-04-24T06:56:22.147Z,5.30
2024-04-24T06:58:49.221Z,5.50
2024-04-24T07:01:16.363Z,5.80
2024-04-24T07:03:43.785Z,6.00
2024-04-24T07:06:10.824Z,6.30
2024-04-24T07:08:37.858Z,6.60
2024-04-24T07:11:05.039Z,6.80
2024-04-24T07:13:32.145Z,6.90
2024-04-24T07:15:59.149Z,7.00
2024-04-24T07:18:26.359Z,7.20
2024-04-24T07:20:53.512Z,7.10
2024-04-24T07:23:21.241Z,7.00
2024-04-24T07:25:48.504Z,7.00
2024-04-24T07:28:15.801Z,7.10
2024-04-24T07:30:44.622Z,7.30
2024-04-24T07:33:11.845Z,7.50
2024-04-24T07:35:39.058Z,7.60
2024-04-24T07:38:06.297Z,7.90
2024-04-24T07:40:33.431Z,8.30
2024-04-24T07:43:00.474Z,8.40
2024-04-24T07:45:27.469Z,8.30
2024-04-24T07:47:55.222Z,8.20
2024-04-24T07:50:22.448Z,8.00
2024-04-24T07:52:49.457Z,7.80
2024-04-24T07:55:16.536Z,7.60
2024-04-24T07:57:43.545Z,7.30
2024-04-24T08:00:11.224Z,7.20
2024-04-24T08:02:41.090Z,7.10
2024-04-24T08:05:08.238Z,7.10
2024-04-24T08:07:38.657Z,7.10
2024-04-24T08:10:09.411Z,7.00
2024-04-24T08:12:36.624Z,6.70
2024-04-24T08:15:03.982Z,6.60
2024-04-24T08:17:32.006Z,6.50
2024-04-24T08:19:59.239Z,6.50
2024-04-24T08:22:26.317Z,6.60
2024-04-24T08:24:53.346Z,6.70
2024-04-24T08:27:20.359Z,6.80
2024-04-24T08:29:47.317Z,6.90
2024-04-24T08:32:14.413Z,6.90
2024-04-24T08:34:41.474Z,6.90
2024-04-24T08:37:08.426Z,6.80
2024-04-24T08:39:35.601Z,7.00
2024-04-24T08:42:04.634Z,7.10
2024-04-24T08:44:32.637Z,7.20
2024-04-24T08:47:01.542Z,7.40
2024-04-24T08:49:32.325Z,7.50
2024-04-24T08:52:01.912Z,7.80
2024-04-24T08:54:31.320Z,7.90
2024-04-24T08:57:00.378Z,7.90
2024-04-24T08:59:32.807Z,7.90
2024-04-24T09:02:08.917Z,7.80
2024-04-24T09:04:38.104Z,7.80
2024-04-24T09:07:05.313Z,7.70
2024-04-24T09:09:33.188Z,7.40
2024-04-24T09:12:19.268Z,7.20
2024-04-24T09:14:47.605Z,6.90
2024-04-24T09:17:14.631Z,6.80
2024-04-24T09:19:41.765Z,6.80
2024-04-24T09:22:08.715Z,6.70
2024-04-24T09:24:37.982Z,6.60
2024-04-24T09:27:04.998Z,6.60
2024-04-24T09:29:32.165Z,6.50
2024-04-24T09:31:59.271Z,6.30
2024-04-24T09:34:28.211Z,6.10
2024-04-24T09:36:57.727Z,6.10
2024-04-24T09:39:25.658Z,6.00
2024-04-24T09:41:52.675Z,5.90
2024-04-24T09:44:20.397Z,6.00
2024-04-24T09:46:54.767Z,6.10
2024-04-24T09:49:23.128Z,6.20
2024-04-24T09:51:51.676Z,6.30
2024-04-24T09:54:19.936Z,6.40
2024-04-24T09:56:49.911Z,6.50
2024-04-24T09:59:19.014Z,6.50
2024-04-24T10:01:54.591Z,6.60
2024-04-24T10:04:23.145Z,6.60
2024-04-24T10:06:52.053Z,6.60
2024-04-24T10:09:25.729Z,6.60
2024-04-24T10:12:07.252Z,6.50
2024-04-24T10:14:40.155Z,6.40
2024-04-24T10:17:08.904Z,6.20
2024-04-24T10:19:37.588Z,6.00
2024-04-24T10:22:04.814Z,5.90
2024-04-24T10:24:34.146Z,5.70
2024-04-24T10:27:03.672Z,5.70
2024-04-24T10:29:31.860Z,5.70
2024-04-24T10:32:01.978Z,5.80
2024-04-24T10:34:31.119Z,5.80
2024-04-24T10:37:00.213Z,6.10
2024-04-24T10:39:27.584Z,6.20
2024-04-24T10:41:54.936Z,6.50
2024-04-24T10:44:23.157Z,6.80
2024-04-24T10:46:50.461Z,7.10
2024-04-24T10:49:18.438Z,7.30
2024-04-24T10:51:48.691Z,7.30
2024-04-24T10:54:16.393Z,7.20
2024-04-24T10:56:44.570Z,7.20
2024-04-24T10:59:12.045Z,7.10
2024-04-24T11:01:52.558Z,7.00
2024-04-24T11:04:24.804Z,6.90
2024-04-24T11:06:52.143Z,6.80
2024-04-24T11:09:21.446Z,6.70
2024-04-24T11:11:51.113Z,6.60
2024-04-24T11:14:18.551Z,6.50
2024-04-24T11:16:59.089Z,6.40
2024-04-24T11:19:26.651Z,6.30
2024-04-24T11:21:53.612Z,6.20
2024-04-24T11:24:34.092Z,6.20
2024-04-24T11:27:02.030Z,6.00
2024-04-24T11:29:40.339Z,5.70
2024-04-24T11:32:09.045Z,5.50
2024-04-24T11:34:39.265Z,5.40
2024-04-24T11:37:06.693Z,5.30
2024-04-24T11:39:33.723Z,5.20
2024-04-24T11:42:00.743Z,5.20
2024-04-24T11:44:29.714Z,5.30
2024-04-24T11:46:58.028Z,5.50
2024-04-24T11:49:25.721Z,5.70
2024-04-24T11:51:56.305Z,5.80
2024-04-24T11:54:23.293Z,5.90
2024-04-24T11:56:51.635Z,5.90
2024-04-24T11:59:22.875Z,5.90
2024-04-24T12:01:49.855Z,5.80
2024-04-24T12:04:16.856Z,5.80
2024-04-24T12:06:44.857Z,5.70
2024-04-24T12:09:12.298Z,5.80
2024-04-24T12:11:40.437Z,5.70
2024-04-24T12:14:07.816Z,5.60
2024-04-24T12:16:34.979Z,5.60
2024-04-24T12:19:02.154Z,5.50
2024-04-24T12:21:29.193Z,5.50
2024-04-24T12:23:56.416Z,5.40
2024-04-24T12:26:23.554Z,5.40
2024-04-24T12:28:50.770Z,5.30
2024-04-24T12:31:17.831Z,5.30
2024-04-24T12:33:45.050Z,5.20
2024-04-24T12:36:12.514Z,5.10
2024-04-24T12:38:39.555Z,5.10
2024-04-24T12:41:06.796Z,5.00
2024-04-24T12:43:33.780Z,5.00
2024-04-24T12:46:00.793Z,4.90
2024-04-24T12:48:27.775Z,4.80
2024-04-24T12:50:54.770Z,4.80
2024-04-24T12:53:21.786Z,4.80
2024-04-24T12:55:49.658Z,4.80
2024-04-24T12:58:16.889Z,4.80
2024-04-24T13:00:43.912Z,4.80
2024-04-24T13:03:10.947Z,4.80
2024-04-24T13:05:38.169Z,4.80
2024-04-24T13:08:08.538Z,4.80
2024-04-24T13:10:35.617Z,4.90
2024-04-24T13:13:02.624Z,5.20
2024-04-24T13:15:29.668Z,5.50
2024-04-24T13:17:56.984Z,6.00
2024-04-24T13:20:24.353Z,6.20
2024-04-24T13:22:51.363Z,6.40
2024-04-24T13:25:18.443Z,6.60
2024-04-24T13:27:46.913Z,6.70
2024-04-24T13:30:14.357Z,6.80
2024-04-24T13:32:41.798Z,7.00
2024-04-24T13:35:08.909Z,6.90
2024-04-24T13:37:35.951Z,6.90
2024-04-24T13:40:03.038Z,7.00
2024-04-24T13:42:30.011Z,7.20
2024-04-24T13:44:57.056Z,7.20
2024-04-24T13:47:24.884Z,7.10
2024-04-24T13:49:52.804Z,7.10
2024-04-24T13:52:19.889Z,7.00
2024-04-24T13:54:46.858Z,6.90
2024-04-24T13:57:14.007Z,7.00
2024-04-24T13:59:41.152Z,7.10
2024-04-24T14:02:08.229Z,7.10
2024-04-24T14:04:35.332Z,7.00
2024-04-24T14:07:02.514Z,6.90
2024-04-24T14:09:29.566Z,7.20
2024-04-24T14:11:56.644Z,7.80
2024-04-24T14:14:24.012Z,8.20
2024-04-24T14:16:51.202Z,8.30
2024-04-24T14:19:18.239Z,8.20
2024-04-24T14:21:45.180Z,8.10
2024-04-24T14:24:12.413Z,7.80
2024-04-24T14:26:39.393Z,7.50
2024-04-24T14:29:06.885Z,7.10
2024-04-24T14:31:33.959Z,6.80
2024-04-24T14:34:01.175Z,6.50
2024-04-24T14:36:28.189Z,6.30
2024-04-24T14:38:55.726Z,6.00
2024-04-24T14:41:22.793Z,5.60
2024-04-24T14:43:49.850Z,5.20
2024-04-24T14:46:16.912Z,4.90
2024-04-24T14:48:44.148Z,4.60
2024-04-24T14:51:11.290Z,4.50
2024-04-24T14:53:39.005Z,4.40
2024-04-24T14:56:06.297Z,4.20
2024-04-24T14:58:33.360Z,4.10
2024-04-24T15:01:05.331Z,4.10
2024-04-24T15:03:32.640Z,4.40
2024-04-24T15:06:03.834Z,4.70
2024-04-24T15:08:31.174Z,4.80
2024-04-24T15:10:58.462Z,5.00
2024-04-24T15:13:25.520Z,5.10
2024-04-24T15:15:52.734Z,5.20
2024-04-24T15:18:19.993Z,5.10
2024-04-24T15:20:47.135Z,5.00
2024-04-24T15:23:14.860Z,4.90
2024-04-24T15:25:43.798Z,4.80
2024-04-24T15:28:10.996Z,4.80
2024-04-24T15:30:38.062Z,4.80
2024-04-24T15:33:05.561Z,4.80
2024-04-24T15:35:32.816Z,5.00
2024-04-24T15:37:59.920Z,5.10
2024-04-24T15:40:27.098Z,5.20
2024-04-24T15:42:54.042Z,5.30
2024-04-24T15:45:21.060Z,5.40
2024-04-24T15:47:48.946Z,5.60
2024-04-24T15:50:16.178Z,5.80
2024-04-24T15:52:43.363Z,5.90
2024-04-24T15:55:10.476Z,6.00
2024-04-24T15:57:40.057Z,6.10
2024-04-24T16:00:08.945Z,6.20
2024-04-24T16:02:44.320Z,6.30
2024-04-24T16:05:11.426Z,6.40
2024-04-24T16:07:38.303Z,6.40
2024-04-24T16:10:05.812Z,6.50
2024-04-24T16:12:32.746Z,6.50
2024-04-24T16:14:59.699Z,6.50
2024-04-24T16:17:26.734Z,6.40
2024-04-24T16:19:54.218Z,6.40
2024-04-24T16:22:21.176Z,6.30
2024-04-24T16:24:48.236Z,6.20
2024-04-24T16:27:15.275Z,6.20
2024-04-24T16:29:44.302Z,6.00
2024-04-24T16:32:11.223Z,5.90
2024-04-24T16:34:39.547Z,5.80
2024-04-24T16:37:06.449Z,5.70
2024-04-24T16:39:33.436Z,5.60
2024-04-24T16:42:00.401Z,5.70
2024-04-24T16:44:27.439Z,5.70
2024-04-24T16:46:54.476Z,5.70
2024-04-24T16:49:24.439Z,5.90
2024-04-24T16:51:51.877Z,5.80
2024-04-24T16:54:18.769Z,5.80
2024-04-24T16:56:45.683Z,5.60
2024-04-24T16:59:12.642Z,5.40
2024-04-24T17:01:40.622Z,5.30
2024-04-24T17:04:08.097Z,5.30
2024-04-24T17:06:35.601Z,5.30
2024-04-24T17:09:02.554Z,5.10
2024-04-24T17:11:29.663Z,5.00
2024-04-24T17:13:58.856Z,5.00
2024-04-24T17:16:25.798Z,4.90
2024-04-24T17:18:53.018Z,4.90
2024-04-24T17:21:20.065Z,4.80
2024-04-24T17:23:47.059Z,4.80
2024-04-24T17:26:21.000Z,4.80
2024-04-24T17:28:53.487Z,4.70
2024-04-24T17:31:21.008Z,4.60
2024-04-24T17:33:48.461Z,4.50
2024-04-24T17:36:15.930Z,4.30
2024-04-24T17:38:43.498Z,4.20
2024-04-24T17:41:10.730Z,4.10
2024-04-24T17:43:38.160Z,4.10
2024-04-24T17:46:07.801Z,4.00
2024-04-24T17:48:35.310Z,4.00
2024-04-24T17:51:02.698Z,3.90
2024-04-24T17:53:30.046Z,3.90
2024-04-24T17:55:57.438Z,3.90
2024-04-24T17:58:29.405Z,3.90
2024-04-24T18:00:57.881Z,3.80
2024-04-24T18:03:27.871Z,3.70
2024-04-24T18:05:55.004Z,3.60
2024-04-24T18:08:22.253Z,3.50
2024-04-24T18:10:49.602Z,3.50
2024-04-24T18:13:16.612Z,3.40
2024-04-24T18:15:45.655Z,3.30
2024-04-24T18:18:17.286Z,3.20
2024-04-24T18:20:44.907Z,3.10
2024-04-24T18:23:12.267Z,3.00
2024-04-24T18:25:39.224Z,3.00
2024-04-24T18:28:06.313Z,2.90
2024-04-24T18:30:33.454Z,2.80
2024-04-24T18:33:03.968Z,2.70
2024-04-24T18:35:33.755Z,2.70
2024-04-24T18:38:00.994Z,2.60
2024-04-24T18:40:30.637Z,2.50
2024-04-24T18:42:58.132Z,2.50
2024-04-24T18:45:25.164Z,2.40
2024-04-24T18:47:52.375Z,2.30
2024-04-24T18:50:19.744Z,2.30
2024-04-24T18:52:46.915Z,2.30
2024-04-24T18:55:13.896Z,2.20
2024-04-24T18:57:43.996Z,2.10
2024-04-24T19:00:13.302Z,2.10
2024-04-24T19:02:40.615Z,2.00
2024-04-24T19:05:07.808Z,2.00
2024-04-24T19:07:34.760Z,2.00
2024-04-24T19:10:01.755Z,1.90
2024-04-24T19:12:28.727Z,1.90
2024-04-24T19:14:55.784Z,1.80
2024-04-24T19:17:23.525Z,1.70
2024-04-24T19:19:50.561Z,1.70
2024-04-24T19:22:17.907Z,1.70
2024-04-24T19:24:44.863Z,1.70
2024-04-24T19:27:13.483Z,1.70
2024-04-24T19:29:41.694Z,1.60
2024-04-24T19:32:08.732Z,1.60
2024-04-24T19:34:35.745Z,1.60
2024-04-24T19:37:04.679Z,1.60
2024-04-24T19:39:31.602Z,1.50
2024-04-24T19:41:58.582Z,1.40
2024-04-24T19:44:27.351Z,1.40
2024-04-24T19:46:54.316Z,1.40
2024-04-24T19:49:21.189Z,1.30
2024-04-24T19:51:48.170Z,1.30
2024-04-24T19:54:15.149Z,1.20
2024-04-24T19:56:42.276Z,1.20
2024-04-24T19:59:09.302Z,1.10
2024-04-24T20:01:36.370Z,1.10
2024-04-24T20:04:03.510Z,1.10
2024-04-24T20:06:30.555Z,1.00
2024-04-24T20:08:57.468Z,0.90
2024-04-24T20:11:24.522Z,0.90
2024-04-24T20:13:51.487Z,1.00
2024-04-24T20:16:18.677Z,1.00
2024-04-24T20:18:45.766Z,0.90
2024-04-24T20:21:16.546Z,0.90
2024-04-24T20:23:44.053Z,0.90
2024-04-24T20:26:18.396Z,0.80
2024-04-24T20:28:45.387Z,0.80
2024-04-24T20:31:23.128Z,0.80
2024-04-24T20:33:52.405Z,0.80
2024-04-24T20:36:20.451Z,0.80
2024-04-24T20:38:50.528Z,0.80
2024-04-24T20:41:18.655Z,0.80
2024-04-24T20:43:45.648Z,0.90
2024-04-24T20:46:12.568Z,0.90
2024-04-24T20:48:39.839Z,0.90
2024-04-24T20:51:11.822Z,1.00
2024-04-24T20:53:38.883Z,1.00
2024-04-24T20:56:17.713Z,1.00
2024-04-24T20:58:44.814Z,1.10
2024-04-24T21:01:12.069Z,1.10
2024-04-24T21:03:39.591Z,1.10
2024-04-24T21:06:12.780Z,1.10
2024-04-24T21:08:40.355Z,1.20
2024-04-24T21:11:08.937Z,1.20
2024-04-24T21:13:35.963Z,1.20
2024-04-24T21:16:09.561Z,1.30
2024-04-24T21:18:36.644Z,1.30
2024-04-24T21:21:03.884Z,1.40
2024-04-24T21:23:30.920Z,1.40
2024-04-24T21:26:01.755Z,1.40
2024-04-24T21:28:28.742Z,1.40
2024-04-24T21:31:01.652Z,1.40
2024-04-24T21:33:32.744Z,1.50
2024-04-24T21:36:00.211Z,1.50
2024-04-24T21:38:32.298Z,1.50
2024-04-24T21:40:59.374Z,1.50
2024-04-24T21:43:27.083Z,1.50
2024-04-24T21:45:54.672Z,1.60
2024-04-24T21:48:21.704Z,1.60
2024-04-24T21:50:52.526Z,1.60
2024-04-24T21:53:19.602Z,1.60
2024-04-24T21:55:46.877Z,1.60
2024-04-24T21:58:14.158Z,1.60
2024-04-24T22:00:41.339Z,1.60
2024-04-24T22:03:08.460Z,1.60
2024-04-24T22:05:35.890Z,1.60
2024-04-24T22:08:02.966Z,1.60
2024-04-24T22:10:29.932Z,1.60
2024-04-24T22:13:01.470Z,1.60
2024-04-24T22:15:34.014Z,1.60
2024-04-24T22:18:02.726Z,1.60
2024-04-24T22:20:29.785Z,1.60
2024-04-24T22:22:56.731Z,1.60
2024-04-24T22:25:23.652Z,1.70
2024-04-24T22:27:50.754Z,1.60
2024-04-24T22:30:18.040Z,1.60
2024-04-24T22:32:45.171Z,1.50
2024-04-24T22:35:12.212Z,1.50
2024-04-24T22:37:39.142Z,1.50
2024-04-24T22:40:06.817Z,1.40
2024-04-24T22:42:33.834Z,1.40
2024-04-24T22:45:00.808Z,1.40
2024-04-24T22:47:27.855Z,1.40
2024-04-24T22:49:54.819Z,1.40
2024-04-24T22:52:21.725Z,1.50
2024-04-24T22:54:48.637Z,1.50
2024-04-24T22:57:15.547Z,1.50
2024-04-24T22:59:42.762Z,1.50
2024-04-24T23:02:09.808Z,1.50
2024-04-24T23:04:36.760Z,1.50
2024-04-24T23:07:03.793Z,1.40
2024-04-24T23:09:30.714Z,1.40
2024-04-24T23:11:57.937Z,1.30
2024-04-24T23:14:26.506Z,1.30
2024-04-24T23:16:56.399Z,1.30
2024-04-24T23:19:23.416Z,1.20
2024-04-24T23:21:50.386Z,1.20
2024-04-24T23:24:17.356Z,1.20
2024-04-24T23:26:48.712Z,1.20
2024-04-24T23:29:16.041Z,1.20
2024-04-24T23:31:43.081Z,1.20
2024-04-24T23:34:10.061Z,1.20
2024-04-24T23:36:36.949Z,1.20
2024-04-24T23:39:03.935Z,1.30
2024-04-24T23:41:30.932Z,1.30
2024-04-24T23:43:58.020Z,1.30
2024-04-24T23:46:24.967Z,1.30
2024-04-24T23:48:53.506Z,1.40
2024-04-24T23:51:20.496Z,1.40
2024-04-24T23:53:48.852Z,1.40
2024-04-24T23:56:19.077Z,1.40
2024-04-24T23:58:46.121Z,1.40
